Time;durP1;ratioP1;P1;durP2;ratioP2;P2;SDS_P1;SDS_P2;PMS_P1;PMS_P2;Temp;Humidity;BMP_temperature;BMP_pressure;BME280_temperature;BME280_humidity;BME280_pressure;Samples;Min_cycle;Max_cycle;Signal;HPM_P1;HPM_P2
2020/12/06 00:01:35;;;;;;;26.77;16.10;;;;;;;9.06;51.52;99935.16;4981678;28;98987;-70
2020/12/06 00:04:04;;;;;;;27.15;16.67;;;;;;;9.02;51.87;99918.41;4986810;28;97828;-70
2020/12/06 00:06:32;;;;;;;24.60;16.05;;;;;;;9.04;52.12;99914.16;4985116;28;96754;-70
2020/12/06 00:09:00;;;;;;;26.00;16.80;;;;;;;9.08;51.78;99909.94;4982093;28;96776;-70
2020/12/06 00:11:28;;;;;;;28.95;16.98;;;;;;;9.07;51.58;99903.78;4984259;28;99107;-70
2020/12/06 00:13:56;;;;;;;30.20;18.15;;;;;;;9.10;51.47;99901.31;4979791;28;100512;-70
2020/12/06 00:16:23;;;;;;;25.05;15.45;;;;;;;9.12;51.49;99899.66;4984733;28;97429;-71
2020/12/06 00:18:51;;;;;;;30.17;16.73;;;;;;;9.14;51.43;99870.94;4981879;28;97511;-69
2020/12/06 00:21:20;;;;;;;26.13;16.25;;;;;;;9.15;51.61;99854.38;4984468;28;97797;-70
2020/12/06 00:23:47;;;;;;;26.95;16.55;;;;;;;9.17;51.71;99843.13;4981927;28;98443;-71
2020/12/06 00:26:17;;;;;;;26.83;16.73;;;;;;;9.19;51.28;99845.81;4981768;28;97086;-71
2020/12/06 00:28:45;;;;;;;27.92;17.00;;;;;;;9.22;51.21;99853.78;4981839;28;96957;-70
2020/12/06 00:31:13;;;;;;;28.50;16.67;;;;;;;9.25;51.36;99845.19;4985600;28;97859;-71
2020/12/06 00:33:41;;;;;;;29.58;17.60;;;;;;;9.26;51.54;99847.88;4983059;28;97898;-71
2020/12/06 00:36:09;;;;;;;25.50;16.42;;;;;;;9.28;51.69;99861.94;4982277;28;96915;-70
2020/12/06 00:38:37;;;;;;;28.63;17.10;;;;;;;9.31;51.26;99869.91;4983867;28;96905;-70
2020/12/06 00:41:05;;;;;;;28.30;17.42;;;;;;;9.34;51.53;99872.69;4983667;28;97779;-70
2020/12/06 00:43:32;;;;;;;28.70;16.33;;;;;;;9.37;51.33;99856.19;4983325;28;99259;-70
2020/12/06 00:45:59;;;;;;;24.98;16.13;;;;;;;9.37;51.14;99843.97;4984508;28;96579;-70
2020/12/06 00:48:28;;;;;;;23.80;16.40;;;;;;;9.40;51.11;99854.59;4993916;28;97158;-70
2020/12/06 00:50:56;;;;;;;25.10;15.23;;;;;;;9.42;51.49;99850.31;4983959;28;97872;-70
2020/12/06 00:53:24;;;;;;;28.35;17.48;;;;;;;9.45;51.24;99844.31;4980298;28;97098;-70
2020/12/06 00:55:52;;;;;;;28.10;17.48;;;;;;;9.47;50.76;99859.25;4979752;28;96937;-70
2020/12/06 00:58:20;;;;;;;29.30;16.88;;;;;;;9.47;50.71;99861.88;4984998;28;97164;-70
2020/12/06 01:00:48;;;;;;;28.30;16.55;;;;;;;9.48;50.88;99852.28;4989570;28;97825;-70
2020/12/06 01:03:15;;;;;;;25.88;16.90;;;;;;;9.48;51.43;99847.97;4979197;28;102034;-70
2020/12/06 01:05:43;;;;;;;24.85;15.57;;;;;;;9.51;50.61;99844.53;4985558;28;97007;-71
2020/12/06 01:08:11;;;;;;;24.13;16.15;;;;;;;9.54;50.99;99840.34;4982691;28;97510;-70
2020/12/06 01:10:38;;;;;;;34.33;22.57;;;;;;;9.72;50.76;99835.88;4984235;28;99015;-70
2020/12/06 01:13:05;;;;;;;30.10;18.88;;;;;;;9.62;50.88;99830.16;4982201;28;97806;-69
2020/12/06 01:15:33;;;;;;;29.50;18.67;;;;;;;9.61;51.34;99833.63;4988794;28;97004;-69
2020/12/06 01:18:02;;;;;;;27.15;17.30;;;;;;;9.58;51.07;99834.38;4988497;28;97393;-70
2020/12/06 01:20:29;;;;;;;35.60;22.73;;;;;;;9.77;50.97;99823.84;4987546;28;97981;-70
2020/12/06 01:22:57;;;;;;;35.00;23.35;;;;;;;9.92;50.60;99803.47;4984713;28;97812;-70
2020/12/06 01:25:25;;;;;;;29.67;18.48;;;;;;;9.77;50.80;99807.19;4989643;28;97128;-70
2020/12/06 01:27:52;;;;;;;27.42;17.00;;;;;;;9.72;51.66;99811.38;4987790;28;98060;-70
2020/12/06 01:30:19;;;;;;;26.13;17.25;;;;;;;9.69;51.63;99808.63;4980209;28;99554;-70
2020/12/06 01:32:47;;;;;;;29.13;17.83;;;;;;;9.65;51.45;99810.19;4989707;28;97823;-70
2020/12/06 01:35:14;;;;;;;26.20;17.08;;;;;;;9.62;51.00;99811.81;4989557;28;96740;-70
2020/12/06 01:37:42;;;;;;;28.27;17.40;;;;;;;9.59;51.30;99806.44;4987487;28;97409;-70
2020/12/06 01:40:10;;;;;;;29.20;18.25;;;;;;;9.58;51.94;99799.44;4986292;28;98149;-70
2020/12/06 01:42:37;;;;;;;30.33;18.80;;;;;;;9.55;51.16;99801.91;4987413;28;99168;-70
2020/12/06 01:45:07;;;;;;;31.35;18.80;;;;;;;9.53;51.59;99801.84;5004594;22;97270;31
2020/12/06 01:47:35;;;;;;;30.70;18.50;;;;;;;9.53;51.70;99807.09;4950893;28;100680;-69
2020/12/06 01:50:03;;;;;;;30.35;19.35;;;;;;;9.48;51.41;99813.88;4966326;28;98834;-68
2020/12/06 01:52:30;;;;;;;28.98;18.48;;;;;;;9.43;51.58;99817.13;4966231;28;100146;-69
2020/12/06 01:54:58;;;;;;;27.83;18.00;;;;;;;9.36;51.21;99818.59;4963677;28;96664;-69
2020/12/06 01:57:28;;;;;;;31.42;18.63;;;;;;;9.31;51.60;99829.69;4954153;28;96808;-69
2020/12/06 01:59:55;;;;;;;30.23;18.65;;;;;;;9.28;51.86;99817.38;4964753;28;98028;-69
2020/12/06 02:02:23;;;;;;;27.70;18.33;;;;;;;9.24;51.68;99815.47;4960199;28;98326;-68
2020/12/06 02:04:52;;;;;;;29.27;18.25;;;;;;;9.21;52.06;99803.13;4958980;28;96851;-67
2020/12/06 02:07:19;;;;;;;30.45;18.75;;;;;;;9.23;52.06;99790.09;4962438;28;97063;-69
2020/12/06 02:09:46;;;;;;;31.55;19.50;;;;;;;9.23;51.74;99784.88;4960359;28;97958;-69
2020/12/06 02:12:14;;;;;;;31.95;18.33;;;;;;;9.19;51.92;99775.97;4937918;28;97079;-69
2020/12/06 02:14:42;;;;;;;32.38;19.70;;;;;;;9.17;51.80;99775.03;4945582;28;96895;-69
2020/12/06 02:17:09;;;;;;;27.50;17.67;;;;;;;9.17;52.16;99769.78;4941643;28;97269;-69
2020/12/06 02:19:38;;;;;;;29.70;18.80;;;;;;;9.16;51.84;99767.06;4963202;28;97303;-69
2020/12/06 02:22:07;;;;;;;27.92;18.08;;;;;;;9.16;51.87;99769.69;4959661;28;99392;-71
2020/12/06 02:24:34;;;;;;;29.45;18.88;;;;;;;9.14;52.15;99764.38;4958564;28;96785;-69
2020/12/06 02:27:01;;;;;;;31.13;18.92;;;;;;;9.12;51.66;99768.66;4956123;28;96877;-70
2020/12/06 02:29:29;;;;;;;27.95;18.27;;;;;;;9.12;51.83;99771.28;4959538;28;96868;-69
2020/12/06 02:31:57;;;;;;;30.48;17.45;;;;;;;9.10;52.06;99770.31;4957792;28;97973;-70
2020/12/06 02:34:25;;;;;;;33.10;20.33;;;;;;;9.09;51.98;99771.16;4960019;28;96688;-69
2020/12/06 02:36:52;;;;;;;30.40;19.25;;;;;;;9.07;51.78;99778.06;4958948;28;97331;-69
2020/12/06 02:39:21;;;;;;;32.50;18.45;;;;;;;9.07;52.18;99771.91;4947634;28;96943;-69
2020/12/06 02:41:48;;;;;;;28.33;18.88;;;;;;;9.06;51.73;99770.16;4958159;28;100911;-69
2020/12/06 02:44:15;;;;;;;34.50;19.42;;;;;;;9.06;52.11;99767.53;4936165;28;96860;-70
2020/12/06 02:46:43;;;;;;;28.95;19.52;;;;;;;9.05;51.92;99765.75;4956753;28;96805;-69
2020/12/06 02:49:10;;;;;;;31.42;18.20;;;;;;;9.05;51.79;99753.53;4952028;28;97900;-69
2020/12/06 02:51:38;;;;;;;26.98;18.25;;;;;;;9.04;52.27;99750.84;4955132;28;97864;-69
2020/12/06 02:54:05;;;;;;;28.63;18.80;;;;;;;9.03;52.08;99749.94;4961495;28;97123;-70
2020/12/06 02:56:34;;;;;;;30.05;18.77;;;;;;;9.04;51.79;99763.94;4962095;28;96894;-71
2020/12/06 02:59:02;;;;;;;30.35;18.88;;;;;;;9.04;51.92;99763.94;4955712;28;99289;-69
2020/12/06 03:01:30;;;;;;;30.63;18.42;;;;;;;9.01;52.05;99771.69;4983556;28;99106;-70
2020/12/06 03:03:57;;;;;;;32.03;18.98;;;;;;;8.99;51.97;99786.44;4962026;28;96662;-69
2020/12/06 03:06:26;;;;;;;32.28;18.50;;;;;;;8.95;52.16;99782.78;4961718;28;97062;-69
2020/12/06 03:08:53;;;;;;;34.70;19.02;;;;;;;8.95;51.81;99788.03;4955272;28;98104;-69
2020/12/06 03:11:25;;;;;;;29.95;19.35;;;;;;;8.94;52.03;99777.50;4976108;28;99367;-70
2020/12/06 03:13:53;;;;;;;34.22;20.30;;;;;;;8.95;52.16;99774.03;4978921;28;97292;-70
2020/12/06 03:16:21;;;;;;;30.73;19.83;;;;;;;8.95;52.32;99774.03;4976447;28;97237;-68
2020/12/06 03:18:48;;;;;;;29.88;18.17;;;;;;;8.96;52.16;99767.94;4942318;28;99928;-70
2020/12/06 03:21:16;;;;;;;32.50;20.02;;;;;;;8.98;52.23;99768.91;4939833;28;97588;-71
2020/12/06 03:23:44;;;;;;;33.65;19.98;;;;;;;8.97;51.68;99752.31;4983256;28;97325;-70
2020/12/06 03:26:11;;;;;;;31.08;19.70;;;;;;;8.98;51.78;99754.09;4942991;28;97024;-70
2020/12/06 03:28:39;;;;;;;32.35;19.15;;;;;;;9.01;51.77;99742.88;4935984;28;97125;-69
2020/12/06 03:31:07;;;;;;;32.53;18.35;;;;;;;8.99;51.98;99728.81;4986471;28;97453;-69
2020/12/06 03:33:36;;;;;;;36.38;20.40;;;;;;;9.00;52.32;99723.63;4974193;28;97260;-70
2020/12/06 03:36:04;;;;;;;35.88;19.92;;;;;;;9.00;51.79;99718.41;4943842;28;97384;-70
2020/12/06 03:38:32;;;;;;;30.00;18.95;;;;;;;9.02;52.25;99715.84;4919549;28;100290;-70
2020/12/06 03:40:59;;;;;;;30.45;18.48;;;;;;;9.01;51.70;99711.44;4947393;28;97253;-70
2020/12/06 03:43:48;;;;;;;33.25;19.88;;;;;;;9.00;52.01;99731.50;4955786;28;97315;-69
2020/12/06 03:46:16;;;;;;;29.00;18.27;;;;;;;9.02;52.05;99732.44;4977791;28;96743;-70
2020/12/06 03:48:43;;;;;;;28.00;19.05;;;;;;;9.03;52.08;99731.59;4979899;28;97168;-70
2020/12/06 03:51:11;;;;;;;31.02;17.92;;;;;;;9.06;51.65;99729.13;4941339;28;97690;-69
2020/12/06 03:53:39;;;;;;;28.42;18.40;;;;;;;9.07;51.63;99719.53;4983557;28;97314;-69
2020/12/06 03:56:07;;;;;;;30.60;19.00;;;;;;;9.07;51.69;99717.81;4943799;28;96899;-70
2020/12/06 03:58:34;;;;;;;31.27;19.98;;;;;;;9.07;52.01;99711.69;4965152;28;98421;-70
2020/12/06 04:01:01;;;;;;;33.53;19.63;;;;;;;9.08;52.02;99703.91;4956246;28;97272;-70
2020/12/06 04:03:30;;;;;;;34.05;20.52;;;;;;;9.11;51.88;99687.41;4964089;28;97363;-69
2020/12/06 04:05:57;;;;;;;31.70;19.13;;;;;;;9.09;51.71;99670.72;4954795;28;97017;-69
2020/12/06 04:08:25;;;;;;;32.35;19.63;;;;;;;9.08;51.80;99672.47;4961438;28;99058;-70
2020/12/06 04:10:52;;;;;;;32.70;19.45;;;;;;;9.07;51.80;99677.63;4950209;28;97122;-70
2020/12/06 04:13:20;;;;;;;31.85;19.33;;;;;;;9.04;51.62;99688.88;4962799;28;97485;-69
2020/12/06 04:15:47;;;;;;;34.67;20.45;;;;;;;9.05;51.60;99689.78;4956756;28;96881;-70
2020/12/06 04:18:15;;;;;;;33.38;20.08;;;;;;;9.05;51.88;99695.91;4960706;28;97151;-69
2020/12/06 04:20:43;;;;;;;30.10;19.55;;;;;;;9.05;51.55;99703.75;4956599;28;99044;-69
2020/12/06 04:23:11;;;;;;;32.03;18.90;;;;;;;9.06;51.85;99702.94;4965775;28;96820;-71
2020/12/06 04:25:38;;;;;;;34.15;20.70;;;;;;;9.07;51.95;99701.19;4956382;28;97176;-70
2020/12/06 04:28:10;;;;;;;30.65;19.23;;;;;;;9.07;51.86;99701.19;4959351;28;97251;-71
2020/12/06 04:30:37;;;;;;;30.70;18.75;;;;;;;9.05;51.68;99698.53;4960755;28;98012;-71
2020/12/06 04:33:05;;;;;;;32.78;19.98;;;;;;;9.05;51.66;99688.03;4964200;28;96789;-71
2020/12/06 04:35:33;;;;;;;33.25;19.77;;;;;;;9.05;51.59;99681.94;4953710;28;98264;-70
2020/12/06 04:38:01;;;;;;;30.75;19.90;;;;;;;9.06;51.45;99702.03;4961799;28;101073;-69
2020/12/06 04:40:47;;;;;;;32.35;20.38;;;;;;;9.06;51.79;99717.75;4958455;28;97946;-70
2020/12/06 04:43:33;;;;;;;33.35;19.80;;;;;;;9.06;51.67;99723.91;4955743;28;99402;-71
2020/12/06 04:46:01;;;;;;;29.70;18.25;;;;;;;9.06;51.89;99726.53;4962044;28;98387;-70
2020/12/06 04:48:39;;;;;;;30.08;19.60;;;;;;;9.05;51.60;99727.34;4964655;28;97890;-69
2020/12/06 04:51:07;;;;;;;30.65;19.63;;;;;;;9.08;51.35;99718.72;4948488;28;99711;-71
2020/12/06 04:53:43;;;;;;;31.13;18.85;;;;;;;9.06;51.90;99696.81;4964298;28;97331;-70
2020/12/06 04:56:12;;;;;;;34.85;20.08;;;;;;;9.08;51.60;99688.19;4951669;28;96737;-70
2020/12/06 04:58:40;;;;;;;36.72;20.67;;;;;;;9.09;51.47;99687.34;4970892;28;98484;-70
2020/12/06 05:01:08;;;;;;;33.80;20.13;;;;;;;9.08;51.42;99684.66;4968405;28;98020;-71
2020/12/06 05:03:37;;;;;;;29.50;18.75;;;;;;;9.06;51.62;99673.22;4965483;28;96960;-70
2020/12/06 05:06:05;;;;;;;33.40;19.55;;;;;;;9.08;51.60;99671.56;4966972;28;97856;-70
2020/12/06 05:08:36;;;;;;;27.60;18.45;;;;;;;9.05;51.69;99685.41;4964863;28;97905;-71
2020/12/06 05:11:04;;;;;;;30.67;18.63;;;;;;;9.06;51.62;99694.19;4967467;28;99032;-70
2020/12/06 05:13:32;;;;;;;30.58;18.75;;;;;;;9.07;52.10;99707.34;4953473;28;97280;-70
2020/12/06 05:16:06;;;;;;;31.90;18.80;;;;;;;9.06;51.70;99704.66;4963677;28;97014;-70
2020/12/06 05:18:52;;;;;;;27.88;17.33;;;;;;;9.06;51.74;99707.28;4958910;28;97661;-71
2020/12/06 05:21:19;;;;;;;31.60;19.77;;;;;;;9.06;52.01;99702.94;4971874;28;101497;-70
2020/12/06 05:23:47;;;;;;;29.48;19.10;;;;;;;9.07;52.03;99693.34;4962276;28;96916;-70
2020/12/06 05:26:17;;;;;;;33.85;20.38;;;;;;;9.07;51.61;99683.75;4950964;28;96826;-70
2020/12/06 05:28:44;;;;;;;31.17;20.33;;;;;;;9.08;51.78;99695.16;4965042;28;97075;-70
2020/12/06 05:31:12;;;;;;;31.20;18.58;;;;;;;9.10;51.44;99714.44;4958594;28;99419;-70
2020/12/06 05:33:58;;;;;;;31.52;19.35;;;;;;;9.09;51.67;99712.63;4952579;28;97262;-69
2020/12/06 05:36:26;;;;;;;29.98;18.02;;;;;;;9.08;51.99;99709.16;4940190;28;97406;-71
2020/12/06 05:38:54;;;;;;;29.23;18.20;;;;;;;9.09;51.43;99713.53;4961349;28;97946;-70
2020/12/06 05:41:21;;;;;;;31.98;18.85;;;;;;;9.07;51.83;99709.06;4955754;28;97797;-74
2020/12/06 05:43:49;;;;;;;31.20;19.60;;;;;;;9.07;51.59;99688.09;4945543;28;97369;-70
2020/12/06 05:46:17;;;;;;;37.17;21.42;;;;;;;9.08;52.04;99705.63;4982079;28;97006;-70
2020/12/06 05:48:46;;;;;;;33.42;20.33;;;;;;;9.07;51.79;99722.16;4963419;28;100103;-69
2020/12/06 05:51:16;;;;;;;33.58;19.30;;;;;;;9.06;51.37;99721.28;4940729;28;98985;-69
2020/12/06 05:54:03;;;;;;;31.15;19.05;;;;;;;9.08;51.73;99718.72;4964120;28;97652;-69
2020/12/06 05:56:32;;;;;;;31.67;19.85;;;;;;;9.07;51.50;99719.53;4934270;28;96925;-69
2020/12/06 05:59:00;;;;;;;33.28;18.67;;;;;;;9.08;51.65;99705.63;4965787;28;97732;-69
2020/12/06 06:01:28;;;;;;;33.20;19.55;;;;;;;9.10;51.79;99703.97;4964346;28;97780;-70
2020/12/06 06:03:59;;;;;;;33.47;19.88;;;;;;;9.06;51.74;99687.22;4964281;28;97193;-69
2020/12/06 06:06:50;;;;;;;34.08;20.40;;;;;;;9.07;51.81;99677.63;4963693;28;97058;-69
2020/12/06 06:09:19;;;;;;;32.88;20.55;;;;;;;9.08;51.93;99655.84;4962170;28;97211;-70
2020/12/06 06:12:01;;;;;;;34.10;19.58;;;;;;;9.06;51.72;99660.13;4962154;28;97994;-70
2020/12/06 06:14:28;;;;;;;32.90;19.77;;;;;;;9.06;51.76;99660.13;4967067;28;97591;-70
2020/12/06 06:16:56;;;;;;;32.20;19.50;;;;;;;9.04;52.02;99677.50;4941715;28;97200;-70
2020/12/06 06:19:25;;;;;;;29.17;19.30;;;;;;;9.02;51.87;99681.78;4986140;28;97938;-70
2020/12/06 06:21:52;;;;;;;33.95;19.33;;;;;;;9.02;51.67;99679.16;4966119;28;97829;-70
2020/12/06 06:24:24;;;;;;;30.58;18.95;;;;;;;9.00;51.97;99681.72;4949463;28;96835;-68
2020/12/06 06:26:52;;;;;;;31.17;19.52;;;;;;;9.01;51.31;99674.78;4968437;28;97285;-70
2020/12/06 06:29:20;;;;;;;27.48;18.60;;;;;;;9.01;51.62;99686.13;4964676;28;99119;-69
2020/12/06 06:31:49;;;;;;;34.08;21.05;;;;;;;9.01;51.90;99677.41;4959999;28;100934;-70
2020/12/06 06:34:17;;;;;;;28.45;18.25;;;;;;;9.02;52.00;99681.78;4952850;28;97510;-71
2020/12/06 06:36:45;;;;;;;34.35;19.52;;;;;;;9.02;52.08;99677.44;4966051;28;96777;-71
2020/12/06 06:39:18;;;;;;;31.42;19.77;;;;;;;9.01;51.91;99688.75;4934410;28;97354;-71
2020/12/06 06:42:17;;;;;;;31.92;20.20;;;;;;;9.00;51.95;99697.44;4972623;28;97802;-71
2020/12/06 06:44:45;;;;;;;29.35;19.35;;;;;;;9.01;51.75;99686.13;4956554;28;98343;-71
2020/12/06 06:47:14;;;;;;;28.92;19.48;;;;;;;9.02;51.84;99689.66;4962607;28;97457;-72
2020/12/06 06:49:52;;;;;;;29.90;19.25;;;;;;;9.00;52.13;99688.69;4957669;28;97067;-72
2020/12/06 06:52:21;;;;;;;32.40;18.80;;;;;;;9.04;52.11;99693.22;4959441;28;98988;-72
2020/12/06 06:54:49;;;;;;;31.85;18.45;;;;;;;9.06;51.60;99689.84;4959661;28;97727;-72
2020/12/06 06:57:19;;;;;;;32.65;19.35;;;;;;;9.05;51.83;99703.75;4962273;28;98122;-71
2020/12/06 06:59:48;;;;;;;32.72;19.98;;;;;;;9.04;51.91;99701.09;4940809;28;101043;-72
2020/12/06 07:02:25;;;;;;;32.05;19.27;;;;;;;8.99;51.94;99689.53;4966340;28;97165;-70
2020/12/06 07:04:53;;;;;;;28.05;19.55;;;;;;;9.02;51.68;99684.41;4971098;28;96968;-70
2020/12/06 07:07:37;;;;;;;35.80;19.55;;;;;;;8.98;51.93;99667.66;4962887;28;97009;-71
2020/12/06 07:10:05;;;;;;;34.10;19.33;;;;;;;9.00;52.06;99665.13;4960941;28;97921;-71
2020/12/06 07:12:41;;;;;;;32.45;19.48;;;;;;;8.98;52.24;99666.78;4962851;28;97857;-71
2020/12/06 07:15:10;;;;;;;31.70;19.00;;;;;;;8.99;52.09;99685.19;4962346;28;96789;-71
2020/12/06 07:17:38;;;;;;;29.58;18.55;;;;;;;8.99;52.44;99710.47;4963425;28;97148;-71
2020/12/06 07:20:07;;;;;;;34.47;20.45;;;;;;;8.99;51.89;99710.47;4963215;28;97920;-70
2020/12/06 07:22:35;;;;;;;29.60;18.67;;;;;;;8.99;52.29;99713.09;4959907;28;99156;-71
2020/12/06 07:25:04;;;;;;;34.13;20.75;;;;;;;8.99;52.08;99705.25;4964187;28;96691;-71
2020/12/06 07:27:31;;;;;;;40.22;23.65;;;;;;;9.00;52.17;99712.25;4968214;28;96805;-71
2020/12/06 07:30:00;;;;;;;36.30;21.15;;;;;;;9.01;51.93;99714.06;4966303;28;98967;-71
2020/12/06 07:32:28;;;;;;;35.47;20.13;;;;;;;9.00;52.33;99696.53;4947374;28;97916;-71
2020/12/06 07:34:56;;;;;;;32.47;20.98;;;;;;;9.00;52.14;99696.53;4964769;28;96924;-71
2020/12/06 07:37:23;;;;;;;113.32;55.95;;;;;;;9.01;52.17;99690.50;4965028;28;96681;-70
2020/12/06 07:39:51;;;;;;;103.18;49.78;;;;;;;9.02;52.13;99689.66;4967532;28;97795;-70
2020/12/06 07:42:19;;;;;;;40.13;24.38;;;;;;;9.02;52.17;99705.34;4960029;28;98927;-73
2020/12/06 07:45:08;;;;;;;36.33;19.80;;;;;;;9.00;51.81;99699.16;4963382;28;97174;-70
2020/12/06 07:47:37;;;;;;;31.30;18.92;;;;;;;9.01;52.34;99695.72;4966351;28;97284;-69
2020/12/06 07:50:05;;;;;;;33.55;22.40;;;;;;;9.01;51.80;99693.97;4965246;28;97400;-70
2020/12/06 07:52:34;;;;;;;32.53;20.67;;;;;;;9.00;51.77;99692.22;4965687;28;99234;-70
2020/12/06 07:55:04;;;;;;;35.47;20.05;;;;;;;8.99;52.00;99669.47;4968450;28;96702;-69
2020/12/06 07:57:36;;;;;;;35.20;20.52;;;;;;;9.00;52.04;99671.25;4984284;22;97244;-72
2020/12/06 08:00:08;;;;;;;32.83;20.00;;;;;;;8.99;51.84;99679.06;4999438;27;98159;-71
2020/12/06 08:02:36;;;;;;;32.95;19.80;;;;;;;9.00;52.19;99679.09;5020298;27;97833;-71
2020/12/06 08:05:04;;;;;;;30.80;20.38;;;;;;;8.99;51.99;99673.81;5026808;27;96887;-71
2020/12/06 08:07:36;;;;;;;31.20;20.35;;;;;;;8.98;51.91;99665.06;4991216;28;97213;-71
2020/12/06 08:10:05;;;;;;;32.03;19.35;;;;;;;9.01;52.08;99654.69;5021197;28;98196;-71
2020/12/06 08:12:33;;;;;;;33.40;19.77;;;;;;;9.02;52.08;99643.41;5021889;28;101363;-71
2020/12/06 08:15:02;;;;;;;34.95;19.73;;;;;;;9.04;52.16;99631.28;5022704;28;97302;-71
2020/12/06 08:17:42;;;;;;;30.65;19.30;;;;;;;9.09;52.03;99628.81;5026317;28;97688;-71
2020/12/06 08:20:11;;;;;;;43.38;27.23;;;;;;;9.37;51.94;99628.19;5006523;28;98927;-71
2020/12/06 08:22:48;;;;;;;44.83;29.20;;;;;;;9.56;51.75;99628.94;5023356;28;97823;-71
2020/12/06 08:25:15;;;;;;;45.47;28.77;;;;;;;9.70;51.47;99619.91;5018599;28;96854;-71
2020/12/06 08:27:44;;;;;;;37.60;23.52;;;;;;;9.51;51.82;99625.28;5023277;28;97030;-71
2020/12/06 08:30:13;;;;;;;42.30;27.92;;;;;;;9.76;51.14;99645.47;5020005;28;97808;-71
2020/12/06 08:32:50;;;;;;;41.30;27.90;;;;;;;9.84;51.04;99658.03;5017811;28;97953;-71
2020/12/06 08:35:17;;;;;;;32.33;21.08;;;;;;;9.66;51.43;99659.94;5005365;28;96906;-72
2020/12/06 08:37:45;;;;;;;34.38;20.90;;;;;;;9.62;51.71;99679.00;5025731;28;97111;-71
2020/12/06 08:40:12;;;;;;;35.65;19.92;;;;;;;9.59;51.35;99678.00;5026811;27;97962;-71
2020/12/06 08:42:40;;;;;;;37.45;21.20;;;;;;;9.56;51.59;99681.38;5021201;28;99019;-71
2020/12/06 08:45:07;;;;;;;35.08;21.17;;;;;;;9.53;51.80;99657.69;5027236;28;96847;-72
2020/12/06 08:47:43;;;;;;;38.05;21.15;;;;;;;9.51;51.79;99641.00;5026034;28;98030;-71
2020/12/06 08:50:13;;;;;;;113.15;59.63;;;;;;;9.52;51.46;99645.41;5023197;28;98151;-72
2020/12/06 08:52:40;;;;;;;62.92;34.17;;;;;;;9.53;51.59;99654.16;5026388;28;97783;-68
2020/12/06 08:55:30;;;;;;;34.95;22.15;;;;;;;9.53;51.73;99646.28;5024628;28;98347;-71
2020/12/06 08:57:58;;;;;;;38.58;21.35;;;;;;;9.56;51.70;99626.31;5005091;28;97777;-71
2020/12/06 09:00:30;;;;;;;34.90;20.60;;;;;;;9.58;51.72;99627.28;5016777;28;99089;-72
2020/12/06 09:02:59;;;;;;;30.15;19.77;;;;;;;9.60;51.60;99619.50;5021035;28;99140;-71
2020/12/06 09:05:29;;;;;;;33.08;20.00;;;;;;;9.60;51.67;99625.63;5019094;28;96977;-71
2020/12/06 09:07:56;;;;;;;32.53;20.73;;;;;;;9.61;51.95;99637.91;5032373;27;96850;-71
2020/12/06 09:10:24;;;;;;;31.38;20.10;;;;;;;9.63;51.40;99635.34;5024737;28;98065;-71
2020/12/06 09:12:51;;;;;;;32.53;20.73;;;;;;;9.65;51.49;99626.69;5023165;28;99147;-70
2020/12/06 09:15:19;;;;;;;36.83;20.98;;;;;;;9.66;51.63;99625.88;5018165;28;97208;-71
2020/12/06 09:17:46;;;;;;;55.67;35.45;;;;;;;9.88;51.23;99631.06;4984902;28;97475;-72
2020/12/06 09:20:15;;;;;;;55.97;35.58;;;;;;;10.05;50.59;99622.06;5013418;28;98953;-71
2020/12/06 09:22:42;;;;;;;43.90;28.65;;;;;;;10.22;51.59;99621.84;5023894;28;99210;-71
2020/12/06 09:25:10;;;;;;;44.33;29.23;;;;;;;10.36;50.99;99617.97;5018041;28;96973;-71
2020/12/06 09:27:38;;;;;;;44.20;29.08;;;;;;;10.49;50.53;99614.94;5022210;28;97077;-72
2020/12/06 09:30:05;;;;;;;42.90;22.85;;;;;;;10.30;51.23;99602.91;5015249;28;101965;-71
2020/12/06 09:32:32;;;;;;;35.22;21.17;;;;;;;10.21;51.51;99605.22;5018509;28;97837;-69
2020/12/06 09:35:00;;;;;;;32.22;19.92;;;;;;;10.17;51.15;99612.06;5027602;27;97728;-70
2020/12/06 09:37:29;;;;;;;35.25;21.92;;;;;;;10.15;51.66;99613.75;5024039;27;97724;-72
2020/12/06 09:39:56;;;;;;;36.22;22.60;;;;;;;10.15;51.94;99608.50;5023823;28;100393;-72
2020/12/06 09:42:24;;;;;;;33.15;20.65;;;;;;;10.14;51.47;99609.31;5018820;28;98916;-72
2020/12/06 09:44:52;;;;;;;30.17;19.70;;;;;;;10.13;51.19;99602.31;5024865;28;97138;-72
2020/12/06 09:47:20;;;;;;;34.20;20.02;;;;;;;10.12;51.79;99603.16;5027330;28;97381;-72
2020/12/06 09:49:47;;;;;;;35.97;20.33;;;;;;;10.12;51.70;99607.50;5022418;28;98717;-69
2020/12/06 09:52:15;;;;;;;33.67;20.23;;;;;;;10.11;51.02;99598.72;5016479;28;97100;-70
2020/12/06 09:54:43;;;;;;;30.70;19.90;;;;;;;10.11;50.86;99598.72;5019159;28;97715;-72
2020/12/06 09:57:11;;;;;;;37.15;21.10;;;;;;;10.12;51.27;99595.28;5003284;28;97395;-72
2020/12/06 09:59:39;;;;;;;35.67;21.10;;;;;;;10.11;51.16;99589.97;5000798;28;99830;-72
2020/12/06 10:02:06;;;;;;;35.55;20.65;;;;;;;10.12;51.66;99589.13;5019596;28;99132;-69
2020/12/06 10:04:34;;;;;;;33.35;21.85;;;;;;;10.12;51.33;99592.66;5008975;28;98011;-67
2020/12/06 10:07:02;;;;;;;34.25;20.83;;;;;;;10.11;51.44;99596.09;5025888;28;97247;-70
2020/12/06 10:09:31;;;;;;;33.15;20.38;;;;;;;10.11;51.39;99595.22;5020541;28;100932;-71
2020/12/06 10:11:59;;;;;;;37.55;20.88;;;;;;;10.11;51.26;99600.44;5029749;27;98037;-70
2020/12/06 10:14:28;;;;;;;35.10;20.77;;;;;;;10.10;51.47;99596.06;5025963;28;98328;-72
2020/12/06 10:16:55;;;;;;;30.05;19.55;;;;;;;10.09;51.15;99600.41;5023625;28;97803;-69
2020/12/06 10:19:23;;;;;;;34.83;21.58;;;;;;;10.11;51.83;99606.59;5023533;28;97906;-71
2020/12/06 10:21:51;;;;;;;31.60;19.45;;;;;;;10.12;51.50;99600.53;5006806;28;98608;-72
2020/12/06 10:24:19;;;;;;;32.97;20.70;;;;;;;10.13;51.33;99604.03;5020635;28;97201;-72
2020/12/06 10:26:51;;;;;;;37.05;21.92;;;;;;;10.14;51.12;99605.84;5024725;28;98667;-72
2020/12/06 10:29:19;;;;;;;32.05;20.92;;;;;;;10.15;51.13;99608.50;5023626;28;99084;-69
2020/12/06 10:31:48;;;;;;;37.25;21.00;;;;;;;10.16;51.56;99612.03;5025606;28;97753;-69
2020/12/06 10:34:16;;;;;;;29.20;20.60;;;;;;;10.17;50.98;99611.19;5007635;28;97219;-71
2020/12/06 10:36:48;;;;;;;33.63;21.70;;;;;;;10.16;51.71;99607.66;5026102;28;97533;-72
2020/12/06 10:39:15;;;;;;;35.97;22.02;;;;;;;10.18;51.46;99600.72;5015391;27;97860;-71
2020/12/06 10:41:42;;;;;;;33.83;20.98;;;;;;;10.18;51.18;99605.97;5023982;28;97909;-71
2020/12/06 10:44:10;;;;;;;33.65;21.63;;;;;;;10.22;51.31;99600.88;5020582;27;97091;-72
2020/12/06 10:46:57;;;;;;;32.75;21.00;;;;;;;10.23;51.70;99587.78;5023876;28;96822;-72
2020/12/06 10:49:24;;;;;;;35.38;20.90;;;;;;;10.23;50.94;99590.41;5023606;28;97631;-69
2020/12/06 10:51:52;;;;;;;31.20;20.25;;;;;;;10.25;51.24;99588.75;5024208;28;98075;-70
2020/12/06 10:54:19;;;;;;;35.60;22.65;;;;;;;10.27;51.02;99592.31;5025138;28;97218;-70
2020/12/06 10:56:47;;;;;;;34.85;20.70;;;;;;;10.30;51.04;99596.75;5002596;28;97041;-69
2020/12/06 10:59:14;;;;;;;34.47;21.63;;;;;;;10.32;51.52;99601.22;5022393;28;98254;-70
2020/12/06 11:01:42;;;;;;;35.20;22.17;;;;;;;10.34;51.18;99603.91;5018404;28;97849;-69
2020/12/06 11:04:11;;;;;;;37.33;22.85;;;;;;;10.36;51.50;99596.97;5021412;28;96832;-69
2020/12/06 11:06:40;;;;;;;40.58;23.70;;;;;;;10.36;51.64;99602.22;5010025;27;97658;-69
2020/12/06 11:09:07;;;;;;;42.25;24.50;;;;;;;10.38;51.07;99595.31;5018384;27;99038;-70
2020/12/06 11:11:35;;;;;;;37.95;22.80;;;;;;;10.39;51.71;99600.59;5019186;28;99104;-70
2020/12/06 11:14:03;;;;;;;36.20;22.20;;;;;;;10.42;51.74;99598.06;5019544;27;97680;-70
2020/12/06 11:16:30;;;;;;;35.00;22.80;;;;;;;10.44;51.46;99603.41;5018834;28;97413;-69
2020/12/06 11:18:58;;;;;;;35.85;21.20;;;;;;;10.45;51.43;99602.53;5019472;28;97878;-70
2020/12/06 11:21:26;;;;;;;37.05;20.85;;;;;;;10.45;51.37;99589.41;5020414;28;99039;-69
2020/12/06 11:24:12;;;;;;;35.70;21.92;;;;;;;10.47;51.58;99598.25;5021023;28;97205;-70
2020/12/06 11:26:39;;;;;;;36.30;23.02;;;;;;;10.46;50.97;99596.44;5023405;28;96865;-69
2020/12/06 11:29:07;;;;;;;35.60;22.48;;;;;;;10.48;51.54;99597.38;5021362;28;97866;-70
2020/12/06 11:31:34;;;;;;;40.05;23.27;;;;;;;10.50;51.22;99575.59;5002489;28;99266;-71
2020/12/06 11:34:02;;;;;;;36.22;21.52;;;;;;;10.51;51.48;99561.63;5023829;28;96883;-70